Time;durP1;ratioP1;P1;durP2;ratioP2;P2;SDS_P1;SDS_P2;PMS_P1;PMS_P2;Temp;Humidity;BMP_temperature;BMP_pressure;BME280_temperature;BME280_humidity;BME280_pressure;Samples;Min_cycle;Max_cycle;Signal;HPM_P1;HPM_P2
2023/12/17 00:01:39;;;;;;;7.28;2.10;;;;;;;;;;5025694;28;20033;-61
2023/12/17 00:04:05;;;;;;;7.00;2.20;;;;;;;;;;5024005;28;20049;-61
2023/12/17 00:06:30;;;;;;;9.63;2.20;;;;;;;;;;5022533;28;20044;-61
2023/12/17 00:08:55;;;;;;;9.27;5.43;;;;;;;;;;5019636;28;20021;-61
2023/12/17 00:11:20;;;;;;;8.33;2.30;;;;;;;;;;5019127;28;20033;-62
2023/12/17 00:13:45;;;;;;;9.45;2.53;;;;;;;;;;5026395;28;20025;-61
2023/12/17 00:16:11;;;;;;;6.57;2.10;;;;;;;;;;5028016;28;20031;-61
2023/12/17 00:18:36;;;;;;;6.90;2.22;;;;;;;;;;5022086;28;20049;-61
2023/12/17 00:21:01;;;;;;;10.10;2.23;;;;;;;;;;5011466;28;20006;-61
2023/12/17 00:23:26;;;;;;;6.30;1.80;;;;;;;;;;5017121;28;20516;-62
2023/12/17 00:25:52;;;;;;;8.48;2.22;;;;;;;;;;5025616;28;20013;-61
2023/12/17 00:28:17;;;;;;;8.32;3.05;;;;;;;;;;5030062;28;20109;-62
2023/12/17 00:30:42;;;;;;;7.63;2.23;;;;;;;;;;5013322;28;20485;-61
2023/12/17 00:33:07;;;;;;;6.03;3.50;;;;;;;;;;5018664;28;20022;-61
2023/12/17 00:35:32;;;;;;;7.00;2.25;;;;;;;;;;5025964;28;20462;-61
2023/12/17 00:37:58;;;;;;;6.75;2.03;;;;;;;;;;5012392;28;20053;-61
2023/12/17 00:40:23;;;;;;;8.27;2.63;;;;;;;;;;5024711;28;20025;-61
2023/12/17 00:42:48;;;;;;;5.88;2.08;;;;;;;;;;5018946;28;20105;-62
2023/12/17 00:45:13;;;;;;;8.07;2.47;;;;;;;;;;5028683;28;20037;-62
2023/12/17 00:47:38;;;;;;;6.05;2.10;;;;;;;;;;5030382;28;20466;-61
2023/12/17 00:50:04;;;;;;;8.38;2.08;;;;;;;;;;5023950;28;20037;-61
2023/12/17 00:52:29;;;;;;;6.85;2.10;;;;;;;;;;5021359;28;20029;-61
2023/12/17 00:54:55;;;;;;;5.77;1.87;;;;;;;;;;5018601;28;20022;-62
2023/12/17 00:57:20;;;;;;;7.43;1.98;;;;;;;;;;5029221;28;20449;-62
2023/12/17 00:59:45;;;;;;;9.13;1.80;;;;;;;;;;5022886;28;20175;-62
2023/12/17 01:02:10;;;;;;;6.53;2.20;;;;;;;;;;5025566;28;20038;-61
2023/12/17 01:04:35;;;;;;;6.47;2.03;;;;;;;;;;5038960;28;20033;-61
2023/12/17 01:07:01;;;;;;;6.35;2.13;;;;;;;;;;5027363;28;20084;-62
2023/12/17 01:09:26;;;;;;;7.43;3.20;;;;;;;;;;5019717;28;20025;-61
2023/12/17 01:11:51;;;;;;;8.27;4.57;;;;;;;;;;5027293;28;20021;-61
2023/12/17 01:14:16;;;;;;;9.43;2.05;;;;;;;;;;5016224;28;20176;-61
2023/12/17 01:16:42;;;;;;;6.45;1.83;;;;;;;;;;5018356;28;20378;-61
2023/12/17 01:19:07;;;;;;;6.45;1.80;;;;;;;;;;5025444;28;20014;-61
2023/12/17 01:21:32;;;;;;;8.73;2.28;;;;;;;;;;5022469;28;20538;-61
2023/12/17 01:23:58;;;;;;;8.65;2.08;;;;;;;;;;5018504;28;20164;-61
2023/12/17 01:26:26;;;;;;;7.20;1.70;;;;;;;;;;5020614;28;20084;-61
2023/12/17 01:28:51;;;;;;;9.38;2.60;;;;;;;;;;5030190;28;20634;-61
2023/12/17 01:31:17;;;;;;;6.37;1.93;;;;;;;;;;5022025;28;20080;-61
2023/12/17 01:33:42;;;;;;;7.85;1.92;;;;;;;;;;5013719;28;20097;-61
2023/12/17 01:36:07;;;;;;;6.50;1.88;;;;;;;;;;5026935;28;20029;-61
2023/12/17 01:38:32;;;;;;;9.45;2.00;;;;;;;;;;5026002;28;20037;-61
2023/12/17 01:40:57;;;;;;;9.67;2.80;;;;;;;;;;5014775;28;20022;-61
2023/12/17 01:43:23;;;;;;;8.15;2.05;;;;;;;;;;5029339;28;20178;-61
2023/12/17 01:45:48;;;;;;;8.50;2.00;;;;;;;;;;5027610;28;20044;-61
2023/12/17 01:48:13;;;;;;;6.15;2.10;;;;;;;;;;5018796;28;20034;-61
2023/12/17 01:50:39;;;;;;;6.57;1.73;;;;;;;;;;5022989;28;20025;-61
2023/12/17 01:53:04;;;;;;;5.17;1.47;;;;;;;;;;5022816;28;20022;-61
2023/12/17 01:55:30;;;;;;;6.88;1.92;;;;;;;;;;5021795;28;20413;-61
2023/12/17 01:57:56;;;;;;;7.88;1.63;;;;;;;;;;5019386;28;20020;-61
2023/12/17 02:00:21;;;;;;;5.68;1.80;;;;;;;;;;5022892;28;20073;-62
2023/12/17 02:02:47;;;;;;;9.53;2.40;;;;;;;;;;5019224;28;20033;-61
2023/12/17 02:05:12;;;;;;;6.70;1.70;;;;;;;;;;5019079;28;20393;-61
2023/12/17 02:07:39;;;;;;;6.77;1.67;;;;;;;;;;5031030;28;20424;-62
2023/12/17 02:10:04;;;;;;;9.30;1.88;;;;;;;;;;5024382;28;20071;-62
2023/12/17 02:12:29;;;;;;;5.78;2.00;;;;;;;;;;5018948;28;20494;-61
2023/12/17 02:14:55;;;;;;;7.15;1.73;;;;;;;;;;5029442;28;20203;-62
2023/12/17 02:17:27;;;;;;;9.10;2.40;;;;;;;;;;5027380;28;20026;-62
2023/12/17 02:19:52;;;;;;;6.93;1.80;;;;;;;;;;5029516;28;20025;-61
2023/12/17 02:22:17;;;;;;;9.60;2.40;;;;;;;;;;5025165;28;20029;-61
2023/12/17 02:24:42;;;;;;;8.93;2.30;;;;;;;;;;5024849;28;20489;-62
2023/12/17 02:27:07;;;;;;;7.50;2.10;;;;;;;;;;5022126;28;20022;-61
2023/12/17 02:29:32;;;;;;;6.65;2.10;;;;;;;;;;5031822;28;20449;-61
2023/12/17 02:31:58;;;;;;;6.47;2.05;;;;;;;;;;5029922;28;20083;-62
2023/12/17 02:34:23;;;;;;;9.45;2.40;;;;;;;;;;5023258;28;20057;-61
2023/12/17 02:36:48;;;;;;;6.78;2.30;;;;;;;;;;5031784;28;20033;-61
2023/12/17 02:39:13;;;;;;;11.35;2.85;;;;;;;;;;5030281;28;20088;-61
2023/12/17 02:41:38;;;;;;;7.68;1.90;;;;;;;;;;5024144;28;20040;-61
2023/12/17 02:44:03;;;;;;;7.87;2.17;;;;;;;;;;5026341;28;20033;-61
2023/12/17 02:46:28;;;;;;;5.80;2.07;;;;;;;;;;5028845;28;20105;-61
2023/12/17 02:48:54;;;;;;;7.33;2.50;;;;;;;;;;5033405;28;20026;-61
2023/12/17 02:51:19;;;;;;;8.50;2.67;;;;;;;;;;5032662;28;20034;-61
2023/12/17 02:53:44;;;;;;;7.35;2.10;;;;;;;;;;5023099;28;20026;-61
2023/12/17 02:56:09;;;;;;;6.18;2.20;;;;;;;;;;5018598;28;20052;-61
2023/12/17 02:58:34;;;;;;;11.13;2.47;;;;;;;;;;5034225;28;20065;-61
2023/12/17 03:00:59;;;;;;;8.73;2.28;;;;;;;;;;5031892;28;20033;-61
2023/12/17 03:03:24;;;;;;;8.18;2.20;;;;;;;;;;5033296;28;20025;-62
2023/12/17 03:05:50;;;;;;;6.40;2.53;;;;;;;;;;5033260;28;20076;-61
2023/12/17 03:08:15;;;;;;;9.85;2.45;;;;;;;;;;5032264;28;20025;-62
2023/12/17 03:10:42;;;;;;;6.80;2.23;;;;;;;;;;5024695;28;20592;-61
2023/12/17 03:13:08;;;;;;;8.40;2.65;;;;;;;;;;5013436;28;20056;-62
2023/12/17 03:15:34;;;;;;;8.57;2.53;;;;;;;;;;5029837;28;20103;-61
2023/12/17 03:17:59;;;;;;;7.70;2.20;;;;;;;;;;5037908;28;20028;-61
2023/12/17 03:20:25;;;;;;;10.60;2.83;;;;;;;;;;5028573;28;20144;-61
2023/12/17 03:22:50;;;;;;;6.45;2.33;;;;;;;;;;5032533;28;20136;-61
2023/12/17 03:25:15;;;;;;;7.53;2.38;;;;;;;;;;5029353;28;20038;-61
2023/12/17 03:27:41;;;;;;;6.93;2.40;;;;;;;;;;5024752;28;20041;-61
2023/12/17 03:30:06;;;;;;;7.80;2.53;;;;;;;;;;5028776;28;20085;-61
2023/12/17 03:32:31;;;;;;;9.45;2.53;;;;;;;;;;5019218;28;20053;-61
2023/12/17 03:34:57;;;;;;;8.88;2.53;;;;;;;;;;5027654;28;20026;-61
2023/12/17 03:37:22;;;;;;;10.73;2.65;;;;;;;;;;5034016;28;20026;-61
2023/12/17 03:39:48;;;;;;;10.02;2.80;;;;;;;;;;5033195;28;20079;-61
2023/12/17 03:42:13;;;;;;;9.25;3.10;;;;;;;;;;5031178;28;20048;-61
2023/12/17 03:44:39;;;;;;;6.82;2.58;;;;;;;;;;5023721;28;20017;-61
2023/12/17 03:47:04;;;;;;;6.80;2.70;;;;;;;;;;5031750;28;20087;-61
2023/12/17 03:49:29;;;;;;;7.87;2.33;;;;;;;;;;5031784;28;20025;-61
2023/12/17 03:51:54;;;;;;;8.77;2.58;;;;;;;;;;5023391;28;20028;-61
2023/12/17 03:54:19;;;;;;;7.70;2.10;;;;;;;;;;5026246;28;20025;-61
2023/12/17 03:56:45;;;;;;;7.70;2.35;;;;;;;;;;5027337;28;20040;-62
2023/12/17 03:59:10;;;;;;;8.88;2.55;;;;;;;;;;5030467;28;20116;-61
2023/12/17 04:01:42;;;;;;;6.03;2.15;;;;;;;;;;5023852;28;20044;-61
2023/12/17 04:04:08;;;;;;;5.88;2.25;;;;;;;;;;5030100;28;20065;-61
2023/12/17 04:06:33;;;;;;;7.85;2.60;;;;;;;;;;5020981;28;20021;-61
2023/12/17 04:08:58;;;;;;;5.93;2.28;;;;;;;;;;5032359;28;20034;-61
2023/12/17 04:11:23;;;;;;;9.05;2.53;;;;;;;;;;5029520;28;20017;-61
2023/12/17 04:13:48;;;;;;;6.07;2.20;;;;;;;;;;5023180;28;20143;-61
2023/12/17 04:16:14;;;;;;;9.77;2.58;;;;;;;;;;5025606;28;20014;-61
2023/12/17 04:18:39;;;;;;;8.10;2.05;;;;;;;;;;5016289;28;20046;-61
2023/12/17 04:21:05;;;;;;;6.20;2.40;;;;;;;;;;5018542;28;20397;-61
2023/12/17 04:23:30;;;;;;;5.40;1.83;;;;;;;;;;5012216;28;20034;-61
2023/12/17 04:25:55;;;;;;;7.45;2.40;;;;;;;;;;5019154;28;20370;-61
2023/12/17 04:28:20;;;;;;;9.63;2.57;;;;;;;;;;5028102;28;20503;-61
2023/12/17 04:30:45;;;;;;;10.60;3.03;;;;;;;;;;5021994;28;20108;-61
2023/12/17 04:33:11;;;;;;;9.75;3.00;;;;;;;;;;5018788;28;20038;-62
2023/12/17 04:35:36;;;;;;;10.90;2.63;;;;;;;;;;5023777;28;20502;-62
2023/12/17 04:38:01;;;;;;;8.68;2.60;;;;;;;;;;5022388;28;20053;-61
2023/12/17 04:40:26;;;;;;;7.60;2.70;;;;;;;;;;5030594;28;20091;-63
2023/12/17 04:42:51;;;;;;;6.75;2.55;;;;;;;;;;5023946;28;20413;-61
2023/12/17 04:45:16;;;;;;;9.02;2.30;;;;;;;;;;5016112;28;20028;-61
2023/12/17 04:47:41;;;;;;;7.97;2.38;;;;;;;;;;5022526;28;20026;-60
2023/12/17 04:50:07;;;;;;;5.90;2.30;;;;;;;;;;5022507;28;20474;-60
2023/12/17 04:52:32;;;;;;;7.30;2.30;;;;;;;;;;5026962;28;20025;-62
2023/12/17 04:54:57;;;;;;;6.33;2.50;;;;;;;;;;5031585;28;20382;-61
2023/12/17 04:57:22;;;;;;;6.97;2.37;;;;;;;;;;5028640;28;20031;-62
2023/12/17 04:59:47;;;;;;;8.65;2.63;;;;;;;;;;5021519;28;20075;-61
2023/12/17 05:02:13;;;;;;;8.15;2.22;;;;;;;;;;5019230;28;20033;-61
2023/12/17 05:04:38;;;;;;;7.78;2.92;;;;;;;;;;5023326;28;20045;-61
2023/12/17 05:07:03;;;;;;;6.97;2.40;;;;;;;;;;5012200;28;20395;-62
2023/12/17 05:09:28;;;;;;;6.70;2.63;;;;;;;;;;5015583;28;20058;-62
2023/12/17 05:11:54;;;;;;;7.03;2.60;;;;;;;;;;5018492;28;20466;-62
2023/12/17 05:14:20;;;;;;;8.98;2.80;;;;;;;;;;5025485;28;20041;-62
2023/12/17 05:16:45;;;;;;;8.48;2.70;;;;;;;;;;5019915;28;20026;-61
2023/12/17 05:19:10;;;;;;;5.47;2.28;;;;;;;;;;5026926;28;20045;-62
2023/12/17 05:21:35;;;;;;;6.73;2.50;;;;;;;;;;5010340;28;20025;-61
2023/12/17 05:24:02;;;;;;;5.38;2.63;;;;;;;;;;5027347;28;21355;-61
2023/12/17 05:26:28;;;;;;;6.40;2.50;;;;;;;;;;5030100;28;20502;-61
2023/12/17 05:28:53;;;;;;;7.63;2.47;;;;;;;;;;5026235;28;20024;-62
2023/12/17 05:31:18;;;;;;;8.55;2.67;;;;;;;;;;5028101;28;20025;-62
2023/12/17 05:33:46;;;;;;;7.13;2.95;;;;;;;;;;5013602;28;20068;-62
2023/12/17 05:36:12;;;;;;;9.70;3.60;;;;;;;;;;5014495;28;20401;-62
2023/12/17 05:38:37;;;;;;;10.32;3.47;;;;;;;;;;5014549;28;20026;-62
2023/12/17 05:41:02;;;;;;;9.45;3.10;;;;;;;;;;5030345;28;20068;-62
2023/12/17 05:43:27;;;;;;;9.32;2.92;;;;;;;;;;5032944;28;20056;-60
2023/12/17 05:45:52;;;;;;;6.75;3.10;;;;;;;;;;5034890;28;20017;-62
2023/12/17 05:48:18;;;;;;;9.10;3.07;;;;;;;;;;5032671;28;20029;-60
2023/12/17 05:50:44;;;;;;;6.00;2.50;;;;;;;;;;5035994;28;20025;-62
2023/12/17 05:53:09;;;;;;;7.03;2.90;;;;;;;;;;5035451;28;20052;-62
2023/12/17 05:55:35;;;;;;;6.15;2.67;;;;;;;;;;5030170;28;20482;-62
2023/12/17 05:58:00;;;;;;;6.93;2.88;;;;;;;;;;5032857;28;20088;-63
2023/12/17 06:00:25;;;;;;;6.70;2.72;;;;;;;;;;5033040;28;20061;-62
2023/12/17 06:02:50;;;;;;;7.67;3.00;;;;;;;;;;5025550;28;20025;-61
2023/12/17 06:05:15;;;;;;;8.93;3.20;;;;;;;;;;5032357;28;20040;-61
2023/12/17 06:07:41;;;;;;;9.00;2.83;;;;;;;;;;5027824;28;20978;-61
2023/12/17 06:10:06;;;;;;;8.13;2.60;;;;;;;;;;5033615;28;20124;-62
2023/12/17 06:12:31;;;;;;;8.18;2.78;;;;;;;;;;5033640;28;20026;-61
2023/12/17 06:14:56;;;;;;;8.67;3.33;;;;;;;;;;5031098;28;20029;-62
2023/12/17 06:17:21;;;;;;;7.65;2.33;;;;;;;;;;5014007;28;20014;-62
2023/12/17 06:19:47;;;;;;;7.55;2.90;;;;;;;;;;5021147;28;20018;-61
2023/12/17 06:22:15;;;;;;;7.43;2.55;;;;;;;;;;5023374;28;20029;-60
2023/12/17 06:24:40;;;;;;;9.13;2.67;;;;;;;;;;5017567;28;20034;-61
2023/12/17 06:27:05;;;;;;;7.13;2.53;;;;;;;;;;5014084;28;20044;-61
2023/12/17 06:29:31;;;;;;;8.82;2.67;;;;;;;;;;5024364;28;20037;-60
2023/12/17 06:31:56;;;;;;;7.45;2.80;;;;;;;;;;5038306;28;20021;-62
2023/12/17 06:34:21;;;;;;;11.73;3.03;;;;;;;;;;5041046;28;20401;-62
2023/12/17 06:36:46;;;;;;;7.88;2.33;;;;;;;;;;5031066;28;20495;-62
2023/12/17 06:39:11;;;;;;;7.50;2.83;;;;;;;;;;5018589;28;20021;-59
2023/12/17 06:41:43;;;;;;;7.30;2.63;;;;;;;;;;5013509;28;20018;-61
2023/12/17 06:44:08;;;;;;;7.45;2.47;;;;;;;;;;5020915;28;20478;-61
2023/12/17 06:46:33;;;;;;;7.75;2.60;;;;;;;;;;5022056;28;20029;-62
2023/12/17 06:48:58;;;;;;;6.68;2.40;;;;;;;;;;5013616;28;20423;-61
2023/12/17 06:51:23;;;;;;;8.40;3.15;;;;;;;;;;5012700;28;20079;-62
2023/12/17 06:53:49;;;;;;;6.53;2.70;;;;;;;;;;5024583;28;20030;-62
2023/12/17 06:56:14;;;;;;;6.80;2.55;;;;;;;;;;5021569;28;20505;-62
2023/12/17 06:58:39;;;;;;;6.70;2.75;;;;;;;;;;5013291;28;20022;-60
2023/12/17 07:01:04;;;;;;;5.88;2.50;;;;;;;;;;5021096;28;20029;-62
2023/12/17 07:03:29;;;;;;;6.73;2.70;;;;;;;;;;5022307;28;20690;-62
2023/12/17 07:05:54;;;;;;;9.10;3.00;;;;;;;;;;5026788;28;20572;-61
2023/12/17 07:08:19;;;;;;;7.00;2.90;;;;;;;;;;5019886;28;20029;-61
2023/12/17 07:10:45;;;;;;;8.40;3.05;;;;;;;;;;5024469;28;20034;-62
2023/12/17 07:13:10;;;;;;;8.98;3.08;;;;;;;;;;5024684;28;20041;-61
2023/12/17 07:15:35;;;;;;;6.37;2.53;;;;;;;;;;5032276;28;20029;-61
2023/12/17 07:18:00;;;;;;;6.40;2.83;;;;;;;;;;5027169;28;20033;-62
2023/12/17 07:20:26;;;;;;;7.30;2.97;;;;;;;;;;5031932;28;20401;-61
2023/12/17 07:22:51;;;;;;;6.50;2.57;;;;;;;;;;5027273;28;20029;-62
2023/12/17 07:25:16;;;;;;;9.13;2.78;;;;;;;;;;5020396;28;20029;-61
2023/12/17 07:27:41;;;;;;;7.82;3.33;;;;;;;;;;5024351;28;20390;-61
2023/12/17 07:30:07;;;;;;;8.05;2.83;;;;;;;;;;5027484;28;20363;-61
2023/12/17 07:32:32;;;;;;;7.90;2.88;;;;;;;;;;5027181;28;20968;-61
2023/12/17 07:34:57;;;;;;;7.53;3.00;;;;;;;;;;5019083;28;20022;-61
2023/12/17 07:37:22;;;;;;;8.23;3.13;;;;;;;;;;5020045;28;20037;-61
2023/12/17 07:39:48;;;;;;;7.83;2.90;;;;;;;;;;5021952;28;20123;-61
2023/12/17 07:42:13;;;;;;;7.07;3.47;;;;;;;;;;5027317;28;20451;-60
2023/12/17 07:44:38;;;;;;;7.37;2.70;;;;;;;;;;5031195;28;20031;-61
2023/12/17 07:47:03;;;;;;;8.33;3.23;;;;;;;;;;5031381;28;20444;-62
2023/12/17 07:49:28;;;;;;;7.17;2.90;;;;;;;;;;5031586;28;20029;-61
2023/12/17 07:51:53;;;;;;;10.00;3.73;;;;;;;;;;5029293;28;20030;-60
2023/12/17 07:54:19;;;;;;;8.67;3.20;;;;;;;;;;5015310;28;20088;-61
2023/12/17 07:56:44;;;;;;;7.93;3.20;;;;;;;;;;5029056;28;20021;-61
2023/12/17 07:59:09;;;;;;;7.83;2.97;;;;;;;;;;5031276;28;20044;-62
2023/12/17 08:01:35;;;;;;;9.93;2.90;;;;;;;;;;5025979;28;20493;-61
2023/12/17 08:04:00;;;;;;;8.27;3.55;;;;;;;;;;5019870;28;23149;-60
2023/12/17 08:06:26;;;;;;;8.97;3.60;;;;;;;;;;5021443;28;20112;-60
2023/12/17 08:08:52;;;;;;;9.18;3.60;;;;;;;;;;5015958;28;20025;-61
2023/12/17 08:11:17;;;;;;;8.48;3.90;;;;;;;;;;5023816;28;20021;-62
2023/12/17 08:13:43;;;;;;;8.50;3.35;;;;;;;;;;5020849;28;20239;-60
2023/12/17 08:16:08;;;;;;;8.80;3.05;;;;;;;;;;5026862;28;20026;-60
2023/12/17 08:18:33;;;;;;;8.27;3.50;;;;;;;;;;5019316;28;20033;-60
2023/12/17 08:20:58;;;;;;;9.05;3.78;;;;;;;;;;5011888;28;20030;-62
2023/12/17 08:23:25;;;;;;;10.30;3.78;;;;;;;;;;5011313;28;20033;-62
2023/12/17 08:25:50;;;;;;;6.47;3.50;;;;;;;;;;5011897;28;20016;-63
2023/12/17 08:28:17;;;;;;;11.07;5.00;;;;;;;;;;5011858;28;20497;-61
2023/12/17 08:30:42;;;;;;;9.43;4.40;;;;;;;;;;5011616;28;20014;-62
2023/12/17 08:33:07;;;;;;;9.48;4.55;;;;;;;;;;5014226;28;20045;-61
2023/12/17 08:35:32;;;;;;;11.83;4.70;;;;;;;;;;5014251;28;20026;-61
2023/12/17 08:38:03;;;;;;;12.75;5.28;;;;;;;;;;5015488;28;20389;-62
2023/12/17 08:40:28;;;;;;;9.55;3.90;;;;;;;;;;5018029;28;20415;-62
2023/12/17 08:42:54;;;;;;;8.80;4.35;;;;;;;;;;5016108;28;20026;-62
2023/12/17 08:45:19;;;;;;;9.60;4.30;;;;;;;;;;5026193;28;20017;-62
2023/12/17 08:47:44;;;;;;;11.35;4.05;;;;;;;;;;5031176;28;20053;-62
2023/12/17 08:50:09;;;;;;;10.35;4.60;;;;;;;;;;5031040;28;20428;-62
2023/12/17 08:52:36;;;;;;;12.17;4.97;;;;;;;;;;5030867;28;20033;-62
2023/12/17 08:55:01;;;;;;;11.80;4.72;;;;;;;;;;5031022;28;20026;-62
2023/12/17 08:57:27;;;;;;;10.77;5.43;;;;;;;;;;5031252;28;20033;-61
2023/12/17 08:59:52;;;;;;;11.18;5.32;;;;;;;;;;5031133;28;20056;-62
2023/12/17 09:02:17;;;;;;;12.07;4.53;;;;;;;;;;5028690;28;20079;-62
2023/12/17 09:04:43;;;;;;;11.40;4.60;;;;;;;;;;5030908;28;20033;-62
2023/12/17 09:07:08;;;;;;;12.20;4.82;;;;;;;;;;5030958;28;20017;-62
2023/12/17 09:09:33;;;;;;;10.68;4.80;;;;;;;;;;5027980;28;20029;-62
2023/12/17 09:11:58;;;;;;;11.40;4.80;;;;;;;;;;5030387;28;20029;-62
2023/12/17 09:14:24;;;;;;;10.43;4.53;;;;;;;;;;5030342;28;20029;-62
2023/12/17 09:16:49;;;;;;;9.82;4.60;;;;;;;;;;5031017;28;20025;-62
2023/12/17 09:19:14;;;;;;;14.80;5.50;;;;;;;;;;5029672;28;20025;-61
2023/12/17 09:21:40;;;;;;;14.10;4.90;;;;;;;;;;5030010;28;20825;-62
2023/12/17 09:24:05;;;;;;;12.40;5.38;;;;;;;;;;5030772;28;20519;-62
2023/12/17 09:26:30;;;;;;;9.48;4.50;;;;;;;;;;5029825;28;20009;-62
2023/12/17 09:28:55;;;;;;;12.17;5.13;;;;;;;;;;5031190;28;20021;-62
2023/12/17 09:31:21;;;;;;;10.50;5.10;;;;;;;;;;5030346;28;20018;-64
2023/12/17 09:33:46;;;;;;;11.15;4.97;;;;;;;;;;5029412;28;20048;-61
2023/12/17 09:36:11;;;;;;;14.15;5.30;;;;;;;;;;5031237;28;20156;-61
2023/12/17 09:38:36;;;;;;;17.00;5.90;;;;;;;;;;5030761;28;20022;-61
2023/12/17 09:41:03;;;;;;;10.40;5.00;;;;;;;;;;5030328;28;20033;-62
2023/12/17 09:43:29;;;;;;;12.63;5.15;;;;;;;;;;5030674;28;20092;-61
2023/12/17 09:45:54;;;;;;;10.87;4.90;;;;;;;;;;5027417;28;20017;-62
2023/12/17 09:48:19;;;;;;;13.27;4.80;;;;;;;;;;5030952;28;20025;-61
2023/12/17 09:50:46;;;;;;;10.20;4.40;;;;;;;;;;5030298;28;20062;-61
2023/12/17 09:53:11;;;;;;;10.32;4.68;;;;;;;;;;5030015;28;20029;-62
2023/12/17 09:55:37;;;;;;;10.18;4.85;;;;;;;;;;5030667;28;20466;-62
2023/12/17 09:58:03;;;;;;;14.13;5.53;;;;;;;;;;5030408;28;20025;-62
2023/12/17 10:00:28;;;;;;;17.05;6.70;;;;;;;;;;5030468;28;20049;-61
2023/12/17 10:03:00;;;;;;;19.85;7.28;;;;;;;;;;5027043;28;20064;-62
2023/12/17 10:05:25;;;;;;;13.65;5.45;;;;;;;;;;5030428;28;20080;-62
2023/12/17 10:07:50;;;;;;;15.07;6.67;;;;;;;;;;5030313;28;20026;-62
2023/12/17 10:10:17;;;;;;;16.33;6.90;;;;;;;;;;5030243;28;20018;-61
2023/12/17 10:12:42;;;;;;;10.90;5.00;;;;;;;;;;5029884;28;20421;-61
2023/12/17 10:15:09;;;;;;;11.10;4.73;;;;;;;;;;5013724;28;20026;-62
2023/12/17 10:17:36;;;;;;;13.90;5.50;;;;;;;;;;5010415;28;20044;-62
2023/12/17 10:20:01;;;;;;;12.00;4.93;;;;;;;;;;5009988;28;20040;-62
2023/12/17 10:22:26;;;;;;;12.97;5.00;;;;;;;;;;5009964;28;20486;-61
2023/12/17 10:24:51;;;;;;;11.00;4.27;;;;;;;;;;5025535;28;20034;-62
2023/12/17 10:27:18;;;;;;;11.65;4.00;;;;;;;;;;5014422;28;20129;-61
2023/12/17 10:29:44;;;;;;;12.90;5.55;;;;;;;;;;5014998;28;20121;-63
2023/12/17 10:32:10;;;;;;;9.40;3.90;;;;;;;;;;5015776;28;20054;-61
2023/12/17 10:34:35;;;;;;;10.65;4.25;;;;;;;;;;5015633;28;20017;-61
2023/12/17 10:37:01;;;;;;;9.52;4.28;;;;;;;;;;5014198;28;20064;-61
2023/12/17 10:39:26;;;;;;;9.88;4.15;;;;;;;;;;5029658;28;20112;-61
2023/12/17 10:41:53;;;;;;;12.05;4.50;;;;;;;;;;5014252;28;20021;-62
2023/12/17 10:44:19;;;;;;;9.95;3.90;;;;;;;;;;5033586;28;20021;-61
2023/12/17 10:46:45;;;;;;;9.73;4.00;;;;;;;;;;5030268;28;20017;-62
2023/12/17 10:49:10;;;;;;;10.93;4.53;;;;;;;;;;5022599;28;20044;-61
2023/12/17 10:51:40;;;;;;;12.43;4.53;;;;;;;;;;5032788;28;20017;-61
2023/12/17 10:54:06;;;;;;;12.70;4.40;;;;;;;;;;5033600;28;20025;-61
2023/12/17 10:56:34;;;;;;;10.65;4.80;;;;;;;;;;5033553;28;20167;-61
2023/12/17 10:59:00;;;;;;;11.65;4.45;;;;;;;;;;5033498;28;20029;-61
2023/12/17 11:01:26;;;;;;;10.20;4.45;;;;;;;;;;5032760;28;20374;-61
2023/12/17 11:03:52;;;;;;;10.20;4.53;;;;;;;;;;5031517;28;20036;-62
2023/12/17 11:06:18;;;;;;;9.32;3.88;;;;;;;;;;5033077;28;20044;-62
2023/12/17 11:08:43;;;;;;;10.25;3.97;;;;;;;;;;5033150;28;20026;-62
2023/12/17 11:11:08;;;;;;;9.93;4.57;;;;;;;;;;5032830;28;20104;-62
2023/12/17 11:13:34;;;;;;;11.30;3.42;;;;;;;;;;5032629;28;20026;-62
2023/12/17 11:16:16;;;;;;;13.05;4.30;;;;;;;;;;5032994;28;20033;-62
2023/12/17 11:18:42;;;;;;;11.60;4.50;;;;;;;;;;5032665;28;20021;-62
2023/12/17 11:21:07;;;;;;;10.63;4.18;;;;;;;;;;5017391;28;20105;-61
2023/12/17 11:23:33;;;;;;;8.30;4.22;;;;;;;;;;5012557;28;20233;-61
2023/12/17 11:25:58;;;;;;;10.15;4.00;;;;;;;;;;5013136;28;20030;-62
2023/12/17 11:28:26;;;;;;;8.23;3.50;;;;;;;;;;5012347;28;20054;-62
2023/12/17 11:30:52;;;;;;;9.40;3.58;;;;;;;;;;5021730;28;20010;-62
2023/12/17 11:33:17;;;;;;;9.90;3.57;;;;;;;;;;5032376;28;20036;-62
2023/12/17 11:35:42;;;;;;;10.75;5.00;;;;;;;;;;5032817;28;20052;-62
2023/12/17 11:38:08;;;;;;;6.97;3.40;;;;;;;;;;5031880;28;20017;-62
2023/12/17 11:40:35;;;;;;;10.20;3.70;;;;;;;;;;5032018;28;20088;-62
2023/12/17 11:43:02;;;;;;;9.63;3.70;;;;;;;;;;5012326;28;20069;-62
2023/12/17 11:45:47;;;;;;;9.75;4.07;;;;;;;;;;5012670;28;20026;-62
2023/12/17 11:48:14;;;;;;;9.85;3.90;;;;;;;;;;5012650;28;20029;-62
2023/12/17 11:50:39;;;;;;;;;;;;;;;;;;5020121;28;21330;-61
2023/12/17 11:53:04;;;;;;;10.95;4.43;;;;;;;;;;5031931;28;19905;-62
2023/12/17 11:55:39;;;;;;;9.80;3.75;;;;;;;;;;5032165;28;20493;-61
2023/12/17 11:58:04;;;;;;;8.95;3.83;;;;;;;;;;5032167;28;20026;-61
2023/12/17 12:00:29;;;;;;;12.27;4.63;;;;;;;;;;5031505;28;20159;-62
2023/12/17 12:02:54;;;;;;;8.63;4.00;;;;;;;;;;5031827;28;20029;-63
2023/12/17 12:05:19;;;;;;;8.82;3.40;;;;;;;;;;5030138;28;20650;-62
2023/12/17 12:07:45;;;;;;;11.68;4.72;;;;;;;;;;5032003;28;20061;-62
2023/12/17 12:10:10;;;;;;;10.32;6.18;;;;;;;;;;5031684;28;20025;-61
2023/12/17 12:12:35;;;;;;;10.85;4.05;;;;;;;;;;5031313;28;20025;-62
2023/12/17 12:15:02;;;;;;;9.87;4.70;;;;;;;;;;5030544;28;20386;-62
2023/12/17 12:17:41;;;;;;;11.43;4.35;;;;;;;;;;5031957;28;20025;-62
2023/12/17 12:20:10;;;;;;;11.25;4.72;;;;;;;;;;5023403;28;20490;-60
2023/12/17 12:22:37;;;;;;;10.82;3.83;;;;;;;;;;5028509;28;20399;-62
2023/12/17 12:25:02;;;;;;;11.27;8.32;;;;;;;;;;5028226;28;20448;-63
2023/12/17 12:27:28;;;;;;;9.50;3.72;;;;;;;;;;5022278;28;20045;-63
2023/12/17 12:29:53;;;;;;;9.63;3.87;;;;;;;;;;5026381;28;20025;-63
2023/12/17 12:32:25;;;;;;;9.43;3.27;;;;;;;;;;5024212;28;20563;-62
2023/12/17 12:34:51;;;;;;;16.05;4.93;;;;;;;;;;5027146;28;20029;-61
2023/12/17 12:37:29;;;;;;;8.38;3.55;;;;;;;;;;5030066;28;20041;-61
2023/12/17 12:39:54;;;;;;;12.80;5.35;;;;;;;;;;5027404;28;20036;-63
2023/12/17 12:42:20;;;;;;;10.30;3.63;;;;;;;;;;5029978;28;20104;-63
2023/12/17 12:44:45;;;;;;;10.52;3.85;;;;;;;;;;5020382;28;20044;-63
2023/12/17 12:47:10;;;;;;;8.20;4.00;;;;;;;;;;5021714;28;20025;-64
2023/12/17 12:49:35;;;;;;;8.07;3.33;;;;;;;;;;5021773;28;20021;-63
2023/12/17 12:52:01;;;;;;;10.25;5.38;;;;;;;;;;5023654;28;20017;-64
2023/12/17 12:54:26;;;;;;;7.78;3.10;;;;;;;;;;5024386;28;20091;-64
2023/12/17 12:56:51;;;;;;;10.70;4.03;;;;;;;;;;5033176;28;20026;-64
2023/12/17 12:59:16;;;;;;;7.57;2.90;;;;;;;;;;5033765;28;20034;-63
2023/12/17 13:01:41;;;;;;;9.68;3.35;;;;;;;;;;5029302;28;20033;-65
2023/12/17 13:04:06;;;;;;;9.23;3.00;;;;;;;;;;5032039;28;20036;-64
2023/12/17 13:06:31;;;;;;;10.93;6.53;;;;;;;;;;5024016;28;20084;-63
2023/12/17 13:08:57;;;;;;;11.15;5.07;;;;;;;;;;5028799;28;20946;-62
2023/12/17 13:11:22;;;;;;;9.55;3.53;;;;;;;;;;5019255;28;20033;-63
2023/12/17 13:13:48;;;;;;;13.27;8.63;;;;;;;;;;5014049;28;20037;-63
2023/12/17 13:16:13;;;;;;;9.00;3.85;;;;;;;;;;5017267;28;20018;-65
2023/12/17 13:18:38;;;;;;;11.35;3.72;;;;;;;;;;5015965;28;20013;-62
2023/12/17 13:21:03;;;;;;;7.53;3.03;;;;;;;;;;5023676;28;20532;-64
2023/12/17 13:23:29;;;;;;;9.63;2.87;;;;;;;;;;5023282;28;20057;-64
2023/12/17 13:25:55;;;;;;;9.95;4.88;;;;;;;;;;5022564;28;20594;-62
2023/12/17 13:28:21;;;;;;;8.10;3.30;;;;;;;;;;5014059;28;20393;-64
2023/12/17 13:30:46;;;;;;;10.60;4.63;;;;;;;;;;5025327;28;20087;-64
2023/12/17 13:33:11;;;;;;;11.77;3.60;;;;;;;;;;5016885;28;20030;-63
2023/12/17 13:35:36;;;;;;;9.77;3.60;;;;;;;;;;5023233;28;20033;-64
2023/12/17 13:38:01;;;;;;;9.43;4.05;;;;;;;;;;5025133;28;20030;-62
2023/12/17 13:40:29;;;;;;;8.63;3.40;;;;;;;;;;5012668;28;20101;-62
2023/12/17 13:42:54;;;;;;;9.82;3.90;;;;;;;;;;5024746;28;20516;-64
2023/12/17 13:45:20;;;;;;;13.50;4.32;;;;;;;;;;5018459;28;20057;-64
2023/12/17 13:47:45;;;;;;;8.20;3.47;;;;;;;;;;5014542;28;20125;-64
2023/12/17 13:50:12;;;;;;;10.88;3.33;;;;;;;;;;5021349;28;20029;-64
2023/12/17 13:52:37;;;;;;;9.90;3.42;;;;;;;;;;5026863;28;20071;-63
2023/12/17 13:55:05;;;;;;;10.07;3.38;;;;;;;;;;5018266;28;20018;-63
2023/12/17 13:57:30;;;;;;;9.25;3.17;;;;;;;;;;5025786;28;20025;-63
2023/12/17 13:59:56;;;;;;;11.00;3.53;;;;;;;;;;5025661;28;20029;-63
2023/12/17 14:02:23;;;;;;;11.55;3.13;;;;;;;;;;5028659;28;20029;-62
2023/12/17 14:04:48;;;;;;;9.43;4.40;;;;;;;;;;5023524;28;20029;-62
2023/12/17 14:07:14;;;;;;;9.10;3.43;;;;;;;;;;5020704;28;20040;-63
2023/12/17 14:09:39;;;;;;;9.52;4.20;;;;;;;;;;5027072;28;20104;-62
2023/12/17 14:12:04;;;;;;;8.23;3.47;;;;;;;;;;5030155;28;20028;-63
2023/12/17 14:14:31;;;;;;;9.27;3.55;;;;;;;;;;5030010;28;20025;-63
2023/12/17 14:16:57;;;;;;;9.82;4.25;;;;;;;;;;5021640;28;20089;-63
2023/12/17 14:19:22;;;;;;;7.43;3.30;;;;;;;;;;5023409;28;20053;-61
2023/12/17 14:21:47;;;;;;;11.23;4.20;;;;;;;;;;5021939;28;20482;-63
2023/12/17 14:24:12;;;;;;;9.40;3.63;;;;;;;;;;5013322;28;20083;-63
2023/12/17 14:26:37;;;;;;;11.13;5.70;;;;;;;;;;5028303;28;20057;-64
2023/12/17 14:29:02;;;;;;;8.60;3.43;;;;;;;;;;5029198;28;20087;-64
2023/12/17 14:31:29;;;;;;;12.03;3.80;;;;;;;;;;5028118;28;20377;-63